createdAt,value
2018-10-02T00:02:10.734Z,15.83
2018-10-02T00:04:38.801Z,21.17
2018-10-02T00:07:06.690Z,18.50
2018-10-02T00:09:34.115Z,20.15
2018-10-02T00:12:06.927Z,19.85
2018-10-02T00:14:34.389Z,16.97
2018-10-02T00:17:01.722Z,18.35
2018-10-02T00:19:29.324Z,21.82
2018-10-02T00:22:01.781Z,21.02
2018-10-02T00:24:36.299Z,18.73
2018-10-02T00:27:03.757Z,16.40
2018-10-02T00:29:31.449Z,17.20
2018-10-02T00:31:58.981Z,18.25
2018-10-02T00:34:26.438Z,17.95
2018-10-02T00:36:54.033Z,18.60
2018-10-02T00:39:21.348Z,25.55
2018-10-02T00:41:48.751Z,23.15
2018-10-02T00:44:23.940Z,19.48
2018-10-02T00:49:24.600Z,18.35
2018-10-02T00:51:52.559Z,18.80
2018-10-02T00:54:20.904Z,17.07
2018-10-02T00:56:48.300Z,17.07
2018-10-02T01:01:46.394Z,17.23
2018-10-02T01:04:14.002Z,18.52
2018-10-02T01:06:41.373Z,17.92
2018-10-02T01:09:10.014Z,17.77
2018-10-02T01:11:42.617Z,16.97
2018-10-02T01:14:15.772Z,18.77
2018-10-02T01:16:44.382Z,18.60
2018-10-02T01:19:11.831Z,18.52
2018-10-02T01:21:39.703Z,18.85
2018-10-02T01:24:07.647Z,17.05
2018-10-02T01:26:37.297Z,22.22
2018-10-02T01:29:06.755Z,17.50
2018-10-02T01:31:34.334Z,18.95
2018-10-02T01:34:02.691Z,16.35
2018-10-02T01:36:31.774Z,18.90
2018-10-02T01:39:01.139Z,19.40
2018-10-02T01:41:33.286Z,17.30
2018-10-02T01:44:00.836Z,18.40
2018-10-02T01:46:29.730Z,19.27
2018-10-02T01:49:02.807Z,18.70
2018-10-02T01:51:34.654Z,18.48
2018-10-02T01:54:02.640Z,18.48
2018-10-02T01:56:30.957Z,19.02
2018-10-02T01:59:02.190Z,21.52
2018-10-02T02:01:29.639Z,25.80
2018-10-02T02:03:57.159Z,20.80
2018-10-02T02:06:25.766Z,19.32
2018-10-02T02:08:53.284Z,19.85
2018-10-02T02:11:20.738Z,18.23
2018-10-02T02:16:19.698Z,22.77
2018-10-02T02:18:47.757Z,21.33
2018-10-02T02:21:15.104Z,19.32
2018-10-02T02:23:42.852Z,21.48
2018-10-02T02:26:18.532Z,20.95
2018-10-02T02:28:46.380Z,21.37
2018-10-02T02:31:15.274Z,18.40
2018-10-02T02:33:46.463Z,22.25
2018-10-02T02:36:20.726Z,20.32
2018-10-02T02:38:48.653Z,19.62
2018-10-02T02:41:16.013Z,21.85
2018-10-02T02:43:43.753Z,19.98
2018-10-02T02:46:11.122Z,17.65
2018-10-02T02:48:43.816Z,21.15
2018-10-02T02:51:17.258Z,18.92
2018-10-02T02:53:45.288Z,21.02
2018-10-02T02:56:12.699Z,19.77
2018-10-02T02:58:41.631Z,19.42
2018-10-02T03:01:09.429Z,18.55
2018-10-02T03:03:38.091Z,19.65
2018-10-02T03:06:09.736Z,20.15
2018-10-02T03:08:37.813Z,23.95
2018-10-02T03:11:06.171Z,25.80
2018-10-02T03:16:01.792Z,32.05
2018-10-02T03:18:31.569Z,21.55
2018-10-02T03:21:00.193Z,20.70
2018-10-02T03:23:27.978Z,21.90
2018-10-02T03:25:56.137Z,21.97
2018-10-02T03:28:23.499Z,24.72
2018-10-02T03:30:51.449Z,21.85
2018-10-02T03:33:23.171Z,24.45
2018-10-02T03:35:59.495Z,22.52
2018-10-02T03:38:27.074Z,21.73
2018-10-02T03:40:59.118Z,22.67
2018-10-02T03:43:27.187Z,25.05
2018-10-02T03:45:55.337Z,20.00
2018-10-02T03:48:23.845Z,21.45
2018-10-02T03:50:51.705Z,24.37
2018-10-02T03:53:22.018Z,25.15
2018-10-02T03:55:53.853Z,21.42
2018-10-02T03:58:26.014Z,21.05
2018-10-02T04:00:58.590Z,22.65
2018-10-02T04:03:29.992Z,22.13
2018-10-02T04:05:57.330Z,20.43
2018-10-02T04:08:27.093Z,21.48
2018-10-02T04:10:54.837Z,20.80
2018-10-02T04:13:22.680Z,22.22
2018-10-02T04:15:50.335Z,22.85
2018-10-02T04:18:17.893Z,19.87
2018-10-02T04:20:45.323Z,21.82
2018-10-02T04:23:16.641Z,21.62
2018-10-02T04:25:44.025Z,18.48
2018-10-02T04:28:11.466Z,22.90
2018-10-02T04:30:39.925Z,20.25
2018-10-02T04:33:07.319Z,21.48
2018-10-02T04:35:35.822Z,19.95
2018-10-02T04:38:04.293Z,21.07
2018-10-02T04:40:32.526Z,19.25
2018-10-02T04:42:59.897Z,24.85
2018-10-02T04:45:27.265Z,24.75
2018-10-02T04:48:02.991Z,26.68
2018-10-02T04:50:30.438Z,23.10
2018-10-02T04:52:57.806Z,24.00
2018-10-02T04:55:25.967Z,20.57
2018-10-02T05:00:25.293Z,20.80
2018-10-02T05:05:34.467Z,21.95
2018-10-02T05:08:04.604Z,21.60
2018-10-02T05:13:01.200Z,20.37
2018-10-02T05:15:29.551Z,20.45
2018-10-02T05:17:57.556Z,21.37
2018-10-02T05:20:24.899Z,18.40
2018-10-02T05:22:52.266Z,22.58
2018-10-02T05:25:19.654Z,18.45
2018-10-02T05:27:47.045Z,21.25
2018-10-02T05:30:14.244Z,25.27
2018-10-02T05:32:41.538Z,21.75
2018-10-02T05:35:08.880Z,21.23
2018-10-02T05:37:36.165Z,21.15
2018-10-02T05:40:10.063Z,23.80
2018-10-02T05:42:37.433Z,22.90
2018-10-02T05:45:05.466Z,25.97
2018-10-02T05:47:32.790Z,24.50
2018-10-02T05:50:00.097Z,27.42
2018-10-02T05:52:27.385Z,21.70
2018-10-02T05:54:54.635Z,22.87
2018-10-02T05:57:22.058Z,25.70
2018-10-02T05:59:49.424Z,27.32
2018-10-02T06:02:16.908Z,25.68
2018-10-02T06:04:44.215Z,26.65
2018-10-02T06:07:12.252Z,30.77
2018-10-02T06:09:39.631Z,28.05
2018-10-02T06:12:06.982Z,25.08
2018-10-02T06:14:34.257Z,26.48
2018-10-02T06:17:01.679Z,26.57
2018-10-02T06:19:29.114Z,23.32
2018-10-02T06:21:56.555Z,23.60
2018-10-02T06:24:24.029Z,24.77
2018-10-02T06:26:51.326Z,22.82
2018-10-02T06:29:19.242Z,22.65
2018-10-02T06:34:13.354Z,26.77
2018-10-02T06:36:41.197Z,22.45
2018-10-02T06:39:09.084Z,23.98
2018-10-02T06:41:36.381Z,22.00
2018-10-02T06:44:03.693Z,22.98
2018-10-02T06:46:38.013Z,24.70
2018-10-02T06:51:32.122Z,22.02
2018-10-02T06:53:59.341Z,20.62
2018-10-02T06:56:26.759Z,22.58
2018-10-02T06:58:54.038Z,20.05
2018-10-02T07:01:21.344Z,21.37
2018-10-02T07:03:48.635Z,19.98
2018-10-02T07:06:16.043Z,17.67
2018-10-02T07:08:43.619Z,20.90
2018-10-02T07:11:12.705Z,19.60
2018-10-02T07:13:40.006Z,19.32
2018-10-02T07:18:40.290Z,20.30
2018-10-02T07:21:07.734Z,23.15
2018-10-02T07:23:35.083Z,21.57
2018-10-02T07:26:02.386Z,21.97
2018-10-02T07:28:30.249Z,23.05
2018-10-02T07:30:57.562Z,19.25
2018-10-02T07:33:24.795Z,22.55
2018-10-02T07:35:54.151Z,18.65
2018-10-02T07:38:21.724Z,20.97
2018-10-02T07:40:49.039Z,22.17
2018-10-02T07:43:16.347Z,21.10
2018-10-02T07:45:45.092Z,19.95
2018-10-02T07:48:12.555Z,19.90
2018-10-02T07:50:39.806Z,18.90
2018-10-02T07:53:07.305Z,23.10
2018-10-02T07:55:34.646Z,20.27
2018-10-02T07:58:02.336Z,22.02
2018-10-02T08:00:34.114Z,23.77
2018-10-02T08:03:01.476Z,22.58
2018-10-02T08:05:28.871Z,16.90
2018-10-02T08:07:56.222Z,20.75
2018-10-02T08:10:28.928Z,19.30
2018-10-02T08:12:56.244Z,17.62
2018-10-02T08:15:23.530Z,18.73
2018-10-02T08:18:02.660Z,22.87
2018-10-02T08:23:12.519Z,17.45
2018-10-02T08:25:45.300Z,22.50
2018-10-02T08:28:13.627Z,21.80
2018-10-02T08:30:46.004Z,20.90
2018-10-02T08:33:13.303Z,16.93
2018-10-02T08:35:40.630Z,17.32
2018-10-02T08:38:07.974Z,20.90
2018-10-02T08:40:35.310Z,17.95
2018-10-02T08:43:02.608Z,22.00
2018-10-02T08:45:29.982Z,21.57
2018-10-02T08:47:57.379Z,20.65
2018-10-02T08:50:25.006Z,20.70
2018-10-02T08:52:52.260Z,21.75
2018-10-02T08:55:19.575Z,19.00
2018-10-02T08:57:46.875Z,23.40
2018-10-02T09:00:14.267Z,20.00
2018-10-02T09:02:41.564Z,23.20
2018-10-02T09:05:09.651Z,20.10
2018-10-02T09:07:36.962Z,19.85
2018-10-02T09:10:04.517Z,20.37
2018-10-02T09:12:31.838Z,22.45
2018-10-02T09:14:59.092Z,20.60
2018-10-02T09:17:26.414Z,19.98
2018-10-02T09:19:53.747Z,20.20
2018-10-02T09:22:21.199Z,21.12
2018-10-02T09:24:48.575Z,21.97
2018-10-02T09:27:16.129Z,20.00
2018-10-02T09:29:48.921Z,18.87
2018-10-02T09:32:21.707Z,22.27
2018-10-02T09:34:55.550Z,20.92
2018-10-02T09:37:28.993Z,23.87
2018-10-02T09:40:01.612Z,22.82
2018-10-02T09:42:34.351Z,20.60
2018-10-02T09:45:01.588Z,25.60
2018-10-02T09:47:28.894Z,23.02
2018-10-02T09:49:56.283Z,26.70
2018-10-02T09:52:23.555Z,25.48
2018-10-02T09:54:50.851Z,23.73
2018-10-02T09:57:18.477Z,22.95
2018-10-02T09:59:45.813Z,20.75
2018-10-02T10:02:18.446Z,20.23
2018-10-02T10:04:45.743Z,21.55
2018-10-02T10:07:21.858Z,22.95
2018-10-02T10:09:49.122Z,19.20
2018-10-02T10:12:16.497Z,22.15
2018-10-02T10:14:43.778Z,20.00
2018-10-02T10:17:11.283Z,20.35
2018-10-02T10:19:38.509Z,23.38
2018-10-02T10:22:05.910Z,22.90
2018-10-02T10:24:33.276Z,23.35
2018-10-02T10:27:00.559Z,20.85
2018-10-02T10:29:27.854Z,20.37
2018-10-02T10:31:55.227Z,22.10
2018-10-02T10:34:22.741Z,18.85
2018-10-02T10:36:50.140Z,17.60
2018-10-02T10:39:17.478Z,20.57
2018-10-02T10:41:44.782Z,19.87
2018-10-02T10:44:12.087Z,19.27
2018-10-02T10:46:39.423Z,18.92
2018-10-02T10:49:06.686Z,18.92
2018-10-02T10:51:33.967Z,17.30
2018-10-02T10:54:01.303Z,19.35
2018-10-02T10:59:06.434Z,18.82
2018-10-02T11:01:33.758Z,18.20
2018-10-02T11:04:03.026Z,20.27
2018-10-02T11:06:30.405Z,20.68
2018-10-02T11:11:31.087Z,19.92
2018-10-02T11:14:02.259Z,18.60
2018-10-02T11:16:29.594Z,17.50
2018-10-02T11:18:56.923Z,18.67
2018-10-02T11:21:29.904Z,16.40
2018-10-02T11:23:58.399Z,16.17
2018-10-02T11:26:25.720Z,17.32
2018-10-02T11:28:53.024Z,17.95
2018-10-02T11:31:20.407Z,17.85
2018-10-02T11:33:47.779Z,17.50
2018-10-02T11:36:15.146Z,16.93
2018-10-02T11:38:42.450Z,16.62
2018-10-02T11:41:09.807Z,17.45
2018-10-02T11:43:37.084Z,17.37
2018-10-02T11:46:05.434Z,16.80
2018-10-02T11:48:32.883Z,17.30
2018-10-02T11:51:00.253Z,16.07
2018-10-02T11:53:27.752Z,15.60
2018-10-02T11:55:55.097Z,15.15
2018-10-02T11:58:22.388Z,15.50
2018-10-02T12:00:49.769Z,16.50
2018-10-02T12:03:17.002Z,17.20
2018-10-02T12:05:44.486Z,16.62
2018-10-02T12:08:12.125Z,16.73
2018-10-02T12:10:39.459Z,16.15
2018-10-02T12:13:06.861Z,15.35
2018-10-02T12:15:34.121Z,16.50
2018-10-02T12:18:01.421Z,16.80
2018-10-02T12:20:29.222Z,15.70
2018-10-02T12:22:56.544Z,15.65
2018-10-02T12:25:24.642Z,15.70
2018-10-02T12:27:51.952Z,16.57
2018-10-02T12:30:19.304Z,16.05
2018-10-02T12:32:46.692Z,15.60
2018-10-02T12:35:14.088Z,15.10
2018-10-02T12:37:41.370Z,15.72
2018-10-02T12:40:08.675Z,15.60
2018-10-02T12:42:36.586Z,15.80
2018-10-02T12:45:04.023Z,16.05
2018-10-02T12:47:31.637Z,17.45
2018-10-02T12:49:59.084Z,15.85
2018-10-02T12:52:26.425Z,16.93
2018-10-02T12:54:53.630Z,17.62
2018-10-02T12:57:20.945Z,19.00
2018-10-02T12:59:48.943Z,17.75
2018-10-02T13:02:19.142Z,18.07
2018-10-02T13:04:46.418Z,16.57
2018-10-02T13:09:51.928Z,17.12
2018-10-02T13:12:19.242Z,17.77
2018-10-02T13:17:22.310Z,18.35
2018-10-02T13:19:49.638Z,18.98
2018-10-02T13:22:16.925Z,18.60
2018-10-02T13:24:45.042Z,18.40
2018-10-02T13:27:14.294Z,18.73
2018-10-02T13:29:42.248Z,19.07
2018-10-02T13:32:09.613Z,20.10
2018-10-02T13:34:36.976Z,18.80
2018-10-02T13:37:04.285Z,19.15
2018-10-02T13:39:32.620Z,18.50
2018-10-02T13:42:06.098Z,19.55
2018-10-02T13:44:33.447Z,20.02
2018-10-02T13:47:00.713Z,21.65
2018-10-02T13:49:28.011Z,19.50
2018-10-02T13:51:55.317Z,19.73
2018-10-02T13:54:22.618Z,21.17
2018-10-02T13:56:49.956Z,22.80
2018-10-02T13:59:17.351Z,23.65
2018-10-02T14:01:44.646Z,24.45
2018-10-02T14:04:11.949Z,25.95
2018-10-02T14:09:27.568Z,25.68
2018-10-02T14:11:55.342Z,26.07
2018-10-02T14:14:22.660Z,26.57
2018-10-02T14:16:55.203Z,31.27
2018-10-02T14:19:22.507Z,29.55
2018-10-02T14:21:49.856Z,30.40
2018-10-02T14:24:17.134Z,28.85
2018-10-02T14:26:44.511Z,31.25
2018-10-02T14:29:11.812Z,32.17
2018-10-02T14:31:39.562Z,32.00
2018-10-02T14:34:07.344Z,37.83
2018-10-02T14:39:20.102Z,34.85
2018-10-02T14:41:47.436Z,38.40
2018-10-02T14:44:14.760Z,39.33
2018-10-02T14:46:42.361Z,37.60
2018-10-02T14:49:09.670Z,39.23
2018-10-02T14:51:37.018Z,42.65
2018-10-02T14:54:04.312Z,39.05
2018-10-02T14:56:31.769Z,42.33
2018-10-02T14:58:59.096Z,46.85
2018-10-02T15:01:32.506Z,45.30
2018-10-02T15:03:59.820Z,46.18
2018-10-02T15:09:00.556Z,43.60
2018-10-02T15:11:28.550Z,46.37
2018-10-02T15:13:55.994Z,45.25
2018-10-02T15:16:23.278Z,44.73
2018-10-02T15:18:50.653Z,43.80
2018-10-02T15:21:17.979Z,44.35
2018-10-02T15:26:17.882Z,41.85
2018-10-02T15:28:56.734Z,47.25
2018-10-02T15:31:24.049Z,44.90
2018-10-02T15:33:51.366Z,45.30
2018-10-02T15:36:18.672Z,44.38
2018-10-02T15:38:46.354Z,44.20
2018-10-02T15:41:13.779Z,45.58
2018-10-02T15:43:41.188Z,42.23
2018-10-02T15:46:08.556Z,42.40
2018-10-02T15:48:35.915Z,43.55
2018-10-02T15:51:03.355Z,45.85
2018-10-02T15:53:30.774Z,39.70
2018-10-02T15:56:01.157Z,43.40
2018-10-02T15:58:28.497Z,41.75
2018-10-02T16:00:55.790Z,36.50
2018-10-02T16:03:23.712Z,40.52
2018-10-02T16:05:51.031Z,42.30
2018-10-02T16:08:18.369Z,42.38
2018-10-02T16:10:45.712Z,40.80
2018-10-02T16:13:12.994Z,39.90
2018-10-02T16:15:40.338Z,38.90
2018-10-02T16:18:07.693Z,41.33
2018-10-02T16:20:35.815Z,40.60
2018-10-02T16:23:03.178Z,46.13
2018-10-02T16:25:31.236Z,39.38
2018-10-02T16:27:58.558Z,37.65
2018-10-02T16:30:25.848Z,44.50
2018-10-02T16:32:53.195Z,37.75
2018-10-02T16:35:20.471Z,45.43
2018-10-02T16:37:47.880Z,40.45
2018-10-02T16:40:15.198Z,38.78
2018-10-02T16:45:09.382Z,39.50
2018-10-02T16:47:36.740Z,36.98
2018-10-02T16:50:04.390Z,40.63
2018-10-02T16:52:37.223Z,44.20
2018-10-02T16:55:04.627Z,37.60
2018-10-02T16:57:37.345Z,39.40
2018-10-02T17:00:05.804Z,40.92
2018-10-02T17:02:33.793Z,39.90
2018-10-02T17:05:01.219Z,39.63
2018-10-02T17:07:28.694Z,37.13
2018-10-02T17:09:59.618Z,40.25
2018-10-02T17:12:27.069Z,39.90
2018-10-02T17:14:55.345Z,35.28
2018-10-02T17:17:22.808Z,38.50
2018-10-02T17:19:54.557Z,39.35
2018-10-02T17:22:23.376Z,39.88
2018-10-02T17:29:35.945Z,36.98
2018-10-02T17:32:03.833Z,34.48
2018-10-02T17:34:35.498Z,37.70
2018-10-02T17:37:02.933Z,35.03
2018-10-02T17:39:33.689Z,37.30
2018-10-02T17:42:03.918Z,36.08
2018-10-02T17:44:33.436Z,35.50
2018-10-02T17:47:01.507Z,32.53
2018-10-02T17:49:28.993Z,28.35
2018-10-02T17:51:56.865Z,28.40
2018-10-02T17:54:24.311Z,29.60
2018-10-02T17:59:20.214Z,24.10
2018-10-02T18:01:47.876Z,21.42
2018-10-02T18:04:15.928Z,20.92
2018-10-02T18:06:43.887Z,19.00
2018-10-02T18:09:18.667Z,18.98
2018-10-02T18:11:46.321Z,17.45
2018-10-02T18:14:13.726Z,18.70
2018-10-02T18:16:43.625Z,18.35
2018-10-02T18:19:11.415Z,22.10
2018-10-02T18:21:38.932Z,20.68
2018-10-02T18:25:14.422Z,18.90
2018-10-02T18:27:47.060Z,18.30
2018-10-02T18:30:18.574Z,19.00
2018-10-02T18:32:46.587Z,22.82
2018-10-02T18:35:14.481Z,21.02
2018-10-02T18:37:42.677Z,17.87
2018-10-02T18:40:10.207Z,21.02
2018-10-02T18:42:38.320Z,18.42
2018-10-02T18:45:19.240Z,20.82
2018-10-02T18:47:51.792Z,17.95
2018-10-02T18:50:23.231Z,21.80
2018-10-02T18:52:54.632Z,17.98
2018-10-02T19:36:58.348Z,19.25
2018-10-02T19:39:27.575Z,22.65
2018-10-02T19:41:56.508Z,22.37
2018-10-02T19:44:23.950Z,16.97
2018-10-02T19:46:53.049Z,21.45
2018-10-02T19:49:22.409Z,18.23
2018-10-02T19:52:12.071Z,19.45
2018-10-02T19:54:39.919Z,19.55
2018-10-02T19:57:08.168Z,19.92
2018-10-02T19:59:36.519Z,19.82
2018-10-02T20:04:30.767Z,20.70
2018-10-02T20:06:58.368Z,21.45
2018-10-02T20:09:26.203Z,20.52
2018-10-02T20:11:53.641Z,18.85
2018-10-02T20:14:21.077Z,25.10
2018-10-02T20:16:53.511Z,23.87
2018-10-02T20:19:21.073Z,21.73
2018-10-02T20:21:48.738Z,19.87
2018-10-02T20:24:16.947Z,21.75
2018-10-02T20:29:12.533Z,20.02
2018-10-02T20:31:43.459Z,22.75
2018-10-02T20:34:11.876Z,22.87
2018-10-02T20:36:40.749Z,24.80
2018-10-02T20:39:14.174Z,19.98
2018-10-02T20:41:43.825Z,22.52
2018-10-02T20:44:11.421Z,21.77
2018-10-02T20:46:38.937Z,20.10
2018-10-02T20:49:06.433Z,21.80
2018-10-02T20:51:34.050Z,22.27
2018-10-02T20:54:01.619Z,22.48
2018-10-02T20:56:30.754Z,24.55
2018-10-02T20:58:58.309Z,25.55
2018-10-02T21:01:26.245Z,19.52
2018-10-02T21:03:53.818Z,21.57
2018-10-02T21:06:21.307Z,22.95
2018-10-02T21:08:48.854Z,22.58
2018-10-02T21:11:16.538Z,19.07
2018-10-02T21:13:44.524Z,23.92
2018-10-02T21:16:12.601Z,19.85
2018-10-02T21:18:39.970Z,22.62
2018-10-02T21:21:07.703Z,25.12
2018-10-02T21:23:35.194Z,31.10
2018-10-02T21:26:03.460Z,18.80
2018-10-02T21:28:30.941Z,23.90
2018-10-02T21:30:58.465Z,24.75
2018-10-02T21:33:25.952Z,22.95
2018-10-02T21:35:53.355Z,20.95
2018-10-02T21:38:21.194Z,21.77
2018-10-02T21:40:48.649Z,22.13
2018-10-02T21:43:16.070Z,22.82
2018-10-02T21:48:20.978Z,23.55
2018-10-02T21:50:48.397Z,21.87
2018-10-02T21:53:16.394Z,21.42
2018-10-02T21:55:43.835Z,20.90
2018-10-02T21:58:11.692Z,23.52
2018-10-02T22:00:39.832Z,22.73
2018-10-02T22:03:14.342Z,24.50
2018-10-02T22:05:41.805Z,20.27
2018-10-02T22:08:09.493Z,23.05
2018-10-02T22:10:41.620Z,25.50
2018-10-02T22:13:09.973Z,22.55
2018-10-02T22:15:37.389Z,20.65
2018-10-02T22:18:04.859Z,22.73
2018-10-02T22:20:36.485Z,24.10
2018-10-02T22:23:03.982Z,23.87
2018-10-02T22:25:31.912Z,22.02
2018-10-02T22:27:59.415Z,23.77
2018-10-02T22:30:26.863Z,24.30
2018-10-02T22:32:54.310Z,22.00
2018-10-02T22:35:21.802Z,24.77
2018-10-02T22:37:49.931Z,22.87
2018-10-02T22:40:17.358Z,25.05
2018-10-02T22:42:44.854Z,20.77
2018-10-02T22:45:12.462Z,22.90
2018-10-02T22:47:39.892Z,24.72
2018-10-02T22:50:11.757Z,23.25
2018-10-02T22:52:44.246Z,22.73
2018-10-02T22:55:11.670Z,27.10
2018-10-02T22:57:39.746Z,20.90
2018-10-02T23:02:40.031Z,22.32
2018-10-02T23:05:07.945Z,25.32
2018-10-02T23:07:39.650Z,22.17
2018-10-02T23:10:07.294Z,30.30
2018-10-02T23:12:39.104Z,21.25
2018-10-02T23:15:06.572Z,23.00
2018-10-02T23:17:34.122Z,22.37
2018-10-02T23:20:01.601Z,24.40
2018-10-02T23:22:29.108Z,22.55
2018-10-02T23:24:57.458Z,24.20
2018-10-02T23:27:24.843Z,28.90
2018-10-02T23:29:56.348Z,23.52
2018-10-02T23:32:27.995Z,24.85
2018-10-02T23:34:56.165Z,22.77
2018-10-02T23:37:23.534Z,21.33
2018-10-02T23:39:51.621Z,21.33
2018-10-02T23:42:19.381Z,19.82
2018-10-02T23:44:46.774Z,21.05
2018-10-02T23:47:15.342Z,23.40
2018-10-02T23:49:43.022Z,21.70
2018-10-02T23:52:10.760Z,21.07
2018-10-02T23:54:39.472Z,22.77
2018-10-02T23:57:07.012Z,20.65
2018-10-02T23:59:34.715Z,22.73
